Time;durP1;ratioP1;P1;durP2;ratioP2;P2;SDS_P1;SDS_P2;PMS_P1;PMS_P2;Temp;Humidity;BMP_temperature;BMP_pressure;BME280_temperature;BME280_humidity;BME280_pressure;Samples;Min_cycle;Max_cycle;Signal;HPM_P1;HPM_P2
2022/03/13 00:02:15;;;;;;;31.13;16.55;;;;;;;8.24;60.92;101385.88;5026383;28;20033;-73
2022/03/13 00:04:43;;;;;;;33.97;17.63;;;;;;;8.16;61.90;101388.28;5025184;28;20042;-72
2022/03/13 00:07:19;;;;;;;34.25;16.92;;;;;;;8.28;61.37;101382.09;5028402;28;20037;-71
2022/03/13 00:09:45;;;;;;;30.52;16.55;;;;;;;8.38;61.22;101382.13;5026044;28;20110;-72
2022/03/13 00:12:15;;;;;;;37.13;16.77;;;;;;;8.37;61.52;101376.16;5027300;28;20388;-74
2022/03/13 00:14:44;;;;;;;28.65;15.88;;;;;;;8.24;61.98;101382.47;5024768;28;20136;-74
2022/03/13 00:17:11;;;;;;;31.08;15.82;;;;;;;8.18;62.99;101373.47;5009128;28;20037;-72
2022/03/13 00:19:38;;;;;;;37.72;17.65;;;;;;;8.15;63.07;101365.94;5026558;28;20041;-72
2022/03/13 00:22:05;;;;;;;38.50;18.02;;;;;;;8.08;63.13;101364.81;5019991;28;20029;-72
2022/03/13 00:24:32;;;;;;;36.35;16.23;;;;;;;8.22;62.77;101374.84;5021923;28;20120;-72
2022/03/13 00:27:00;;;;;;;30.67;15.80;;;;;;;8.13;62.97;101366.06;5037360;28;20037;-72
2022/03/13 00:29:28;;;;;;;37.65;18.00;;;;;;;8.16;63.04;101352.09;5023539;28;20029;-72
2022/03/13 00:31:53;;;;;;;33.22;15.93;;;;;;;8.00;63.47;101342.19;5043033;28;20033;-72
2022/03/13 00:34:19;;;;;;;34.25;16.10;;;;;;;8.03;63.52;101338.56;5023946;28;20051;-73
2022/03/13 00:36:45;;;;;;;31.63;16.88;;;;;;;7.88;64.08;101340.63;5020123;28;20415;-72
2022/03/13 00:39:11;;;;;;;31.08;16.42;;;;;;;7.82;64.35;101336.78;5024310;28;20041;-73
2022/03/13 00:41:38;;;;;;;33.75;16.92;;;;;;;7.79;63.67;101331.88;5009021;28;20046;-72
2022/03/13 00:44:04;;;;;;;39.20;17.23;;;;;;;7.80;63.19;101334.31;5022034;28;20057;-72
2022/03/13 00:46:30;;;;;;;33.88;16.95;;;;;;;7.97;62.09;101324.38;5024020;28;20029;-72
2022/03/13 00:48:59;;;;;;;35.83;18.27;;;;;;;7.93;62.09;101330.72;5019708;28;20037;-72
2022/03/13 00:51:24;;;;;;;36.25;17.23;;;;;;;7.98;61.82;101326.81;5010613;28;20567;-71
2022/03/13 00:53:50;;;;;;;30.05;16.05;;;;;;;7.86;61.71;101329.63;5025068;28;20551;-71
2022/03/13 00:56:16;;;;;;;38.30;18.55;;;;;;;7.86;61.44;101316.72;5026794;28;20041;-72
2022/03/13 00:58:42;;;;;;;30.10;16.58;;;;;;;7.89;61.27;101314.69;5024586;28;20032;-72
2022/03/13 01:01:10;;;;;;;34.78;17.60;;;;;;;7.92;61.44;101316.19;5024602;28;20073;-71
2022/03/13 01:03:35;;;;;;;28.88;16.30;;;;;;;7.80;61.36;101318.03;5020985;28;20064;-72
2022/03/13 01:06:04;;;;;;;33.38;16.83;;;;;;;7.83;61.26;101314.34;5025054;28;20115;-72
2022/03/13 01:08:30;;;;;;;34.13;16.88;;;;;;;7.83;61.13;101315.16;5026333;28;20029;-72
2022/03/13 01:10:57;;;;;;;32.30;16.23;;;;;;;7.89;61.42;101312.09;5018774;28;20056;-72
2022/03/13 01:13:23;;;;;;;35.10;15.85;;;;;;;7.78;61.84;101309.59;5032728;22;20578;-77
2022/03/13 01:15:49;;;;;;;31.08;16.58;;;;;;;7.73;61.91;101304.78;5016490;28;20049;-80
2022/03/13 01:18:16;;;;;;;34.78;16.73;;;;;;;7.75;62.00;101302.88;5000372;28;20583;-79
2022/03/13 01:20:44;;;;;;;31.17;16.02;;;;;;;7.72;61.91;101303.16;5005766;28;20093;-79
2022/03/13 01:23:11;;;;;;;32.00;16.05;;;;;;;7.74;62.30;101301.28;5008770;28;20046;-80
2022/03/13 01:25:40;;;;;;;29.35;15.60;;;;;;;7.63;62.68;101303.06;5005662;28;20038;-80
2022/03/13 01:28:05;;;;;;;31.67;15.75;;;;;;;7.67;62.69;101307.06;5029121;22;20072;-89
2022/03/13 01:30:31;;;;;;;30.65;15.60;;;;;;;7.65;62.86;101301.16;5024550;28;20029;-89
2022/03/13 01:32:56;;;;;;;34.30;15.63;;;;;;;7.65;62.53;101299.44;5021192;28;20033;-89
2022/03/13 01:35:23;;;;;;;28.60;15.65;;;;;;;7.52;63.27;101304.75;5036012;28;20036;-91
2022/03/13 01:37:50;;;;;;;29.65;14.50;;;;;;;7.59;62.96;101292.16;5036791;28;20041;-89
2022/03/13 01:40:23;;;;;;;31.33;15.05;;;;;;;7.53;63.28;101288.31;5021436;28;21241;-89
2022/03/13 01:42:50;;;;;;;28.70;15.45;;;;;;;7.53;63.08;101287.50;5039562;28;20022;-90
2022/03/13 01:45:19;;;;;;;31.00;15.07;;;;;;;7.48;63.37;101287.91;5024533;28;20032;-89
2022/03/13 01:47:46;;;;;;;29.42;15.18;;;;;;;7.50;63.20;101275.69;5015529;28;20090;-88
2022/03/13 01:50:13;;;;;;;33.13;15.77;;;;;;;7.46;63.26;101274.28;5034207;28;20029;-89
2022/03/13 01:52:44;;;;;;;35.10;14.80;;;;;;;7.43;63.01;101264.22;5021216;28;20139;-88
2022/03/13 01:55:10;;;;;;;29.13;13.77;;;;;;;7.30;62.98;101261.00;5020079;28;20379;-89
2022/03/13 01:57:37;;;;;;;29.38;14.25;;;;;;;7.27;62.93;101262.06;5022400;28;20029;-88
2022/03/13 02:00:06;;;;;;;24.95;13.50;;;;;;;7.32;62.47;101261.69;5021766;28;20045;-88
2022/03/13 02:02:44;;;;;;;26.45;13.20;;;;;;;7.32;62.26;101259.91;5034967;28;20061;-89
2022/03/13 02:05:35;;;;;;;26.13;13.25;;;;;;;7.16;62.33;101252.59;5017108;28;20040;-89
2022/03/13 02:08:12;;;;;;;27.08;13.52;;;;;;;7.10;62.16;101257.41;5039058;28;20021;-89
2022/03/13 02:10:37;;;;;;;33.05;15.48;;;;;;;7.12;61.86;101253.78;5020609;28;20113;-89
2022/03/13 02:13:03;;;;;;;25.35;13.65;;;;;;;6.99;62.45;101255.72;5028860;28;20045;-89
2022/03/13 02:15:30;;;;;;;24.30;13.45;;;;;;;7.04;62.17;101252.75;5029366;28;20057;-90
2022/03/13 02:18:02;;;;;;;31.05;14.10;;;;;;;6.97;62.05;101258.41;5022003;28;20026;-88
2022/03/13 02:20:28;;;;;;;31.38;13.65;;;;;;;7.00;62.06;101252.16;5039467;28;20051;-89
2022/03/13 02:23:00;;;;;;;27.80;14.00;;;;;;;6.91;62.00;101252.88;5019359;28;20033;-90
2022/03/13 02:25:31;;;;;;;31.92;14.52;;;;;;;6.89;61.62;101247.03;5018807;28;20130;-89
2022/03/13 02:27:58;;;;;;;27.45;15.13;;;;;;;6.90;61.41;101253.84;5019582;28;20029;-89
2022/03/13 02:30:26;;;;;;;27.05;13.25;;;;;;;6.85;60.87;101249.03;5038175;28;20028;-88
2022/03/13 02:32:53;;;;;;;28.92;14.35;;;;;;;6.74;61.31;101247.31;5035604;28;20948;-91
2022/03/13 02:35:18;;;;;;;24.80;13.60;;;;;;;6.81;60.78;101243.31;5018179;28;20300;-88
2022/03/13 02:37:44;;;;;;;28.15;13.63;;;;;;;6.78;60.88;101243.56;5021975;28;20156;-88
2022/03/13 02:40:26;;;;;;;27.55;13.60;;;;;;;6.67;60.67;101241.00;5022367;28;20097;-89
2022/03/13 02:42:53;;;;;;;25.90;13.47;;;;;;;6.68;60.62;101241.81;5034179;28;20046;-90
2022/03/13 02:45:32;;;;;;;29.20;13.70;;;;;;;6.64;60.49;101241.22;5013521;28;20045;-91
2022/03/13 02:48:03;;;;;;;28.33;12.98;;;;;;;6.58;60.02;101231.41;5020141;28;20097;-90
2022/03/13 02:50:29;;;;;;;24.70;13.18;;;;;;;6.54;60.03;101232.59;5036955;28;20029;-89
2022/03/13 02:52:55;;;;;;;26.33;13.63;;;;;;;6.58;59.17;101227.06;5021499;28;20563;-89
2022/03/13 02:55:21;;;;;;;27.05;14.10;;;;;;;6.52;59.30;101224.97;5019071;28;20034;-89
2022/03/13 02:57:47;;;;;;;25.40;13.68;;;;;;;6.47;59.03;101221.13;5020660;28;20026;-89
2022/03/13 03:00:15;;;;;;;29.25;13.07;;;;;;;6.46;59.04;101222.03;5021446;28;20738;-90
2022/03/13 03:02:40;;;;;;;28.90;14.13;;;;;;;6.34;58.99;101227.19;5039072;28;20033;-89
2022/03/13 03:05:07;;;;;;;23.88;12.35;;;;;;;6.34;58.19;101223.81;5023060;28;20044;-89
2022/03/13 03:07:34;;;;;;;26.98;12.98;;;;;;;6.33;57.62;101227.31;5038754;28;20368;-90
2022/03/13 03:10:00;;;;;;;23.63;12.25;;;;;;;6.28;57.72;101229.44;5027225;28;20093;-88
2022/03/13 03:12:27;;;;;;;27.25;12.57;;;;;;;6.30;56.69;101233.53;5019534;28;20091;-91
2022/03/13 03:14:54;;;;;;;22.70;11.57;;;;;;;6.33;55.91;101228.16;5024800;28;20025;-89
2022/03/13 03:17:20;;;;;;;23.98;11.10;;;;;;;6.22;56.00;101223.00;5024063;28;20112;-88
2022/03/13 03:19:45;;;;;;;21.17;10.85;;;;;;;6.28;54.80;101219.94;5022084;28;20517;-87
2022/03/13 03:22:11;;;;;;;21.80;10.88;;;;;;;6.30;54.37;101217.25;5019195;28;21241;-88
2022/03/13 03:24:37;;;;;;;23.48;11.13;;;;;;;6.29;54.27;101220.75;5037181;28;20083;-88
2022/03/13 03:27:02;;;;;;;23.15;10.95;;;;;;;6.27;54.12;101217.50;5020580;28;20033;-90
2022/03/13 03:29:29;;;;;;;22.60;11.45;;;;;;;6.24;53.89;101224.50;5019612;28;20056;-87
2022/03/13 03:31:56;;;;;;;24.20;12.43;;;;;;;6.24;53.57;101226.28;5018880;28;20021;-88
2022/03/13 03:34:23;;;;;;;25.38;11.55;;;;;;;6.24;53.69;101234.81;5025086;28;20117;-90
2022/03/13 03:36:54;;;;;;;22.20;10.77;;;;;;;6.27;53.32;101236.31;5026629;28;20037;-90
2022/03/13 03:39:21;;;;;;;21.70;11.07;;;;;;;6.31;53.24;101231.75;5036095;28;20033;-91
2022/03/13 03:41:48;;;;;;;24.13;12.02;;;;;;;6.24;52.79;101229.66;5017445;28;20041;-90
2022/03/13 03:44:14;;;;;;;19.60;10.55;;;;;;;6.35;51.93;101222.88;5014412;28;20494;-87
2022/03/13 03:46:44;;;;;;;22.52;10.68;;;;;;;6.34;52.09;101218.66;5038232;28;20060;-88
2022/03/13 03:49:10;;;;;;;26.50;11.52;;;;;;;6.31;51.59;101209.41;5040132;28;20040;-88
2022/03/13 03:51:37;;;;;;;20.75;10.68;;;;;;;6.35;51.69;101223.69;5019565;28;20061;-90
2022/03/13 03:54:05;;;;;;;20.00;10.77;;;;;;;6.33;51.80;101223.00;5024080;28;20040;-87
2022/03/13 03:56:31;;;;;;;21.23;10.25;;;;;;;6.36;52.17;101216.78;5026729;28;20085;-90
2022/03/13 03:58:56;;;;;;;22.60;10.40;;;;;;;6.31;51.96;101224.03;5031561;28;20052;-88
2022/03/13 04:01:22;;;;;;;21.58;9.82;;;;;;;6.37;51.51;101214.09;5025179;28;20029;-88
2022/03/13 04:03:48;;;;;;;18.73;10.23;;;;;;;6.29;52.25;101207.88;5026870;28;20057;-89
2022/03/13 04:06:17;;;;;;;18.65;9.45;;;;;;;6.39;51.16;101203.69;5031078;28;20503;-88
2022/03/13 04:08:43;;;;;;;18.77;9.88;;;;;;;6.42;50.58;101206.84;5017241;28;20029;-89
2022/03/13 04:11:08;;;;;;;18.92;9.63;;;;;;;6.40;50.35;101208.72;5022403;28;20063;-90
2022/03/13 04:13:38;;;;;;;19.92;9.68;;;;;;;6.42;50.30;101217.16;5038663;28;20030;-89
2022/03/13 04:16:08;;;;;;;19.05;10.63;;;;;;;6.47;49.89;101213.38;5021285;28;20037;-90
2022/03/13 04:18:37;;;;;;;20.25;9.60;;;;;;;6.43;49.98;101212.81;5013801;28;20040;-90
2022/03/13 04:21:05;;;;;;;23.40;10.18;;;;;;;6.46;49.58;101206.59;5025257;28;20033;-89
2022/03/13 04:23:35;;;;;;;25.38;10.88;;;;;;;6.43;49.59;101208.47;5014005;28;20129;-90
2022/03/13 04:26:03;;;;;;;21.30;10.65;;;;;;;6.40;49.64;101197.56;5022674;28;20048;-89
2022/03/13 04:28:29;;;;;;;27.77;11.77;;;;;;;6.37;49.75;101214.09;5024945;28;20649;-87
2022/03/13 04:30:56;;;;;;;18.33;9.80;;;;;;;6.33;49.86;101220.44;5028782;28;20040;-88
2022/03/13 04:33:23;;;;;;;25.73;11.40;;;;;;;6.35;49.53;101215.16;5035116;28;20033;-88
2022/03/13 04:35:52;;;;;;;19.15;9.93;;;;;;;6.48;49.37;101205.53;5017160;28;20328;-90
2022/03/13 04:38:19;;;;;;;24.73;10.57;;;;;;;6.41;49.51;101209.53;5035244;28;20120;-88
2022/03/13 04:40:45;;;;;;;23.42;10.02;;;;;;;6.38;49.44;101202.84;5037817;28;20025;-89
2022/03/13 04:43:11;;;;;;;24.55;10.95;;;;;;;6.46;48.77;101201.44;5025941;28;20037;-90
2022/03/13 04:45:36;;;;;;;20.10;10.90;;;;;;;6.41;49.56;101200.03;5023165;28;20065;-89
2022/03/13 04:48:02;;;;;;;22.90;11.05;;;;;;;6.43;49.35;101190.44;5024988;28;20043;-89
2022/03/13 04:50:28;;;;;;;21.38;10.45;;;;;;;6.53;48.73;101181.97;5032920;28;20524;-90
2022/03/13 04:52:53;;;;;;;19.65;9.60;;;;;;;6.46;48.79;101189.38;5018710;28;20500;-88
2022/03/13 04:55:19;;;;;;;21.65;10.82;;;;;;;6.37;49.32;101193.50;5024468;28;20063;-91
2022/03/13 04:57:44;;;;;;;25.58;11.23;;;;;;;6.36;49.37;101206.47;5022464;28;20267;-89
2022/03/13 05:00:10;;;;;;;23.42;10.98;;;;;;;6.43;49.16;101192.19;5022633;28;20037;-89
2022/03/13 05:02:37;;;;;;;24.15;10.57;;;;;;;6.44;48.98;101196.38;5017023;28;20060;-90
2022/03/13 05:05:04;;;;;;;22.90;11.57;;;;;;;6.41;49.23;101188.91;5023854;28;20029;-87
2022/03/13 05:07:30;;;;;;;24.25;9.98;;;;;;;6.44;48.90;101188.66;5016987;28;20030;-89
2022/03/13 05:09:55;;;;;;;22.10;10.43;;;;;;;6.36;48.83;101181.53;5024358;28;20099;-88
2022/03/13 05:12:27;;;;;;;21.98;10.00;;;;;;;6.33;48.36;101191.25;5014430;28;20025;-88
2022/03/13 05:14:52;;;;;;;25.20;10.90;;;;;;;6.39;48.15;101191.59;5031334;28;20529;-88
2022/03/13 05:17:18;;;;;;;21.20;10.82;;;;;;;6.31;48.86;101187.97;5025761;28;20045;-88
2022/03/13 05:19:45;;;;;;;23.37;11.00;;;;;;;6.32;47.93;101194.78;5016366;28;20049;-88
2022/03/13 05:22:11;;;;;;;20.35;10.52;;;;;;;6.28;47.95;101190.81;5022656;28;20368;-89
2022/03/13 05:24:36;;;;;;;19.52;10.52;;;;;;;6.21;47.78;101193.84;5024413;28;20029;-89
2022/03/13 05:27:02;;;;;;;21.40;10.70;;;;;;;6.39;47.43;101198.53;5038562;28;20037;-87
2022/03/13 05:29:27;;;;;;;20.67;10.32;;;;;;;6.39;46.41;101201.09;5025569;28;20331;-88
2022/03/13 05:31:53;;;;;;;20.15;9.77;;;;;;;6.40;45.65;101201.00;5018771;28;20029;-89
2022/03/13 05:34:18;;;;;;;22.25;9.95;;;;;;;6.37;46.47;101203.78;5021618;28;20071;-89
2022/03/13 05:36:45;;;;;;;21.58;10.07;;;;;;;6.41;45.56;101206.94;5024442;28;20040;-87
2022/03/13 05:39:11;;;;;;;19.27;10.07;;;;;;;6.37;45.58;101188.34;5018145;28;20046;-90
2022/03/13 05:41:39;;;;;;;19.45;10.15;;;;;;;6.47;44.87;101211.63;5015783;28;20060;-90
2022/03/13 05:44:07;;;;;;;21.38;9.60;;;;;;;6.43;44.89;101205.06;5020850;28;20033;-88
2022/03/13 05:46:34;;;;;;;21.25;10.43;;;;;;;6.44;45.02;101209.28;5015971;28;20041;-89
2022/03/13 05:48:59;;;;;;;18.33;9.45;;;;;;;6.38;44.99;101213.13;5017819;28;20029;-90
2022/03/13 05:51:25;;;;;;;22.70;9.73;;;;;;;6.39;45.75;101212.22;5022444;28;20033;-89
2022/03/13 05:53:51;;;;;;;24.23;11.07;;;;;;;6.49;45.21;101220.03;5036557;28;20033;-88
2022/03/13 05:56:16;;;;;;;21.48;10.70;;;;;;;6.46;44.72;101219.47;5031701;28;20034;-89
2022/03/13 05:58:42;;;;;;;16.95;9.07;;;;;;;6.46;44.68;101222.03;5013787;28;20060;-89
2022/03/13 06:01:08;;;;;;;27.15;10.90;;;;;;;6.38;45.02;101222.63;5017383;28;20528;-89
2022/03/13 06:03:34;;;;;;;19.10;9.82;;;;;;;6.39;44.82;101222.53;5011086;28;20324;-90
2022/03/13 06:06:03;;;;;;;19.30;9.25;;;;;;;6.38;44.53;101214.91;5006607;28;20121;-90
2022/03/13 06:08:29;;;;;;;18.17;9.73;;;;;;;6.45;44.64;101221.22;5009913;28;20096;-90
2022/03/13 06:10:55;;;;;;;20.80;9.82;;;;;;;6.36;44.93;101219.34;5028165;28;20033;-89
2022/03/13 06:13:22;;;;;;;18.15;9.15;;;;;;;6.32;45.09;101215.38;5016775;28;20059;-90
2022/03/13 06:15:48;;;;;;;19.00;9.40;;;;;;;6.43;43.56;101216.19;5030525;28;20084;-88
2022/03/13 06:18:14;;;;;;;17.17;9.38;;;;;;;6.40;43.89;101221.59;5012793;28;20029;-88
2022/03/13 06:20:40;;;;;;;20.23;9.73;;;;;;;6.35;44.12;101222.88;5018814;28;20475;-89
2022/03/13 06:23:06;;;;;;;20.80;9.40;;;;;;;6.35;43.96;101215.97;5014474;28;20037;-89
2022/03/13 06:25:31;;;;;;;21.70;9.63;;;;;;;6.34;44.23;101231.53;5021721;28;20037;-88
2022/03/13 06:27:56;;;;;;;17.63;10.10;;;;;;;6.28;44.54;101219.94;5017886;28;20033;-88
2022/03/13 06:30:23;;;;;;;25.20;9.55;;;;;;;6.41;44.26;101223.22;5010530;28;20099;-88
2022/03/13 06:32:53;;;;;;;22.48;10.10;;;;;;;6.30;44.65;101225.00;5013821;28;20068;-89
2022/03/13 06:35:21;;;;;;;22.40;10.48;;;;;;;6.26;44.63;101228.75;5012142;28;20526;-89
2022/03/13 06:37:49;;;;;;;21.33;10.25;;;;;;;6.36;43.82;101234.81;5011721;28;20029;-89
2022/03/13 06:40:17;;;;;;;19.48;9.48;;;;;;;6.36;44.19;101229.66;5017790;28;20037;-89
2022/03/13 06:42:45;;;;;;;23.23;9.50;;;;;;;6.31;44.05;101227.44;5014328;28;20040;-89
2022/03/13 06:45:11;;;;;;;23.30;10.30;;;;;;;6.24;44.67;101224.50;5030697;28;20144;-89
2022/03/13 06:47:38;;;;;;;20.40;9.60;;;;;;;6.36;43.86;101217.59;5011783;28;20033;-88
2022/03/13 06:50:04;;;;;;;18.20;10.13;;;;;;;6.33;44.25;101222.16;5013835;28;20044;-88
2022/03/13 06:52:29;;;;;;;19.50;9.82;;;;;;;6.34;43.99;101218.66;5005880;28;20033;-89
2022/03/13 06:54:55;;;;;;;18.60;9.43;;;;;;;6.33;43.46;101223.00;5013028;28;20033;-88
2022/03/13 06:57:21;;;;;;;20.20;10.38;;;;;;;6.36;43.33;101217.59;5013091;28;20053;-90
2022/03/13 06:59:47;;;;;;;18.40;9.57;;;;;;;6.38;43.79;101223.44;5013534;28;20491;-89
2022/03/13 07:02:13;;;;;;;19.27;9.50;;;;;;;6.37;43.52;101224.41;5032125;28;20040;-88
2022/03/13 07:04:39;;;;;;;19.88;10.00;;;;;;;6.36;43.53;101219.34;5014476;28;20573;-88
2022/03/13 07:07:06;;;;;;;21.67;11.40;;;;;;;6.35;42.98;101215.97;5013227;28;20068;-90
2022/03/13 07:09:32;;;;;;;23.25;10.10;;;;;;;6.39;43.15;101214.78;5031899;28;20044;-88
2022/03/13 07:11:58;;;;;;;18.40;9.25;;;;;;;6.41;43.04;101218.06;5014646;28;20030;-89
2022/03/13 07:14:24;;;;;;;22.60;10.57;;;;;;;6.38;43.27;101213.13;5036013;28;20036;-87
2022/03/13 07:16:52;;;;;;;19.58;9.65;;;;;;;6.31;43.39;101218.88;5031492;28;20052;-89
2022/03/13 07:19:18;;;;;;;23.80;10.20;;;;;;;6.30;43.59;101218.06;5029076;28;20120;-89
2022/03/13 07:21:44;;;;;;;20.15;9.57;;;;;;;6.43;42.65;101221.34;5014846;28;20590;-88
2022/03/13 07:24:10;;;;;;;18.90;9.65;;;;;;;6.39;43.14;101221.72;5022417;28;20041;-88
2022/03/13 07:26:35;;;;;;;19.58;9.68;;;;;;;6.47;42.62;101218.53;5030578;28;20171;-89
2022/03/13 07:29:01;;;;;;;21.08;9.43;;;;;;;6.41;43.12;101218.06;5017873;28;20100;-89
2022/03/13 07:31:31;;;;;;;24.13;9.60;;;;;;;6.48;42.59;101215.00;5018359;28;20022;-88
2022/03/13 07:33:56;;;;;;;22.38;9.55;;;;;;;6.50;42.67;101226.00;5008950;28;20421;-89
2022/03/13 07:36:22;;;;;;;18.70;9.55;;;;;;;6.50;43.37;101224.28;5012244;28;20034;-89
2022/03/13 07:38:48;;;;;;;19.85;9.55;;;;;;;6.65;43.06;101224.00;5027345;28;20029;-89
2022/03/13 07:41:13;;;;;;;18.35;9.68;;;;;;;6.75;43.16;101217.19;5027221;28;20038;-88
2022/03/13 07:43:39;;;;;;;22.65;10.23;;;;;;;6.84;42.50;101221.63;5014623;28;20326;-86
2022/03/13 07:46:05;;;;;;;18.25;10.00;;;;;;;6.88;42.35;101212.72;5019049;28;20045;-88
2022/03/13 07:48:34;;;;;;;20.08;9.05;;;;;;;7.35;41.17;101220.16;5009066;28;20088;-89
2022/03/13 07:51:07;;;;;;;21.48;8.27;;;;;;;8.15;39.55;101201.44;5026988;28;20120;-88
2022/03/13 07:53:33;;;;;;;20.75;10.43;;;;;;;8.32;39.41;101210.34;5013245;28;20029;-89
2022/03/13 07:55:58;;;;;;;21.42;9.80;;;;;;;8.77;38.12;101209.91;5030371;28;20418;-88
2022/03/13 07:58:28;;;;;;;20.45;9.93;;;;;;;9.09;37.85;101211.44;5006884;28;20029;-88
2022/03/13 08:00:54;;;;;;;19.50;9.63;;;;;;;9.47;36.57;101212.38;5010328;28;20033;-89
2022/03/13 08:03:28;;;;;;;18.00;9.85;;;;;;;9.90;35.95;101207.66;5017023;28;20026;-89
2022/03/13 08:05:54;;;;;;;20.45;9.63;;;;;;;10.42;35.50;101210.59;5011581;28;20509;-88
2022/03/13 08:08:19;;;;;;;24.13;10.40;;;;;;;9.50;35.95;101211.28;5010809;28;20037;-87
2022/03/13 08:10:45;;;;;;;17.73;9.35;;;;;;;8.82;37.77;101216.50;5022585;28;20057;-89
2022/03/13 08:13:10;;;;;;;21.15;10.63;;;;;;;8.68;38.48;101213.34;5034888;28;20034;-90
2022/03/13 08:15:36;;;;;;;19.85;10.45;;;;;;;8.50;38.68;101214.94;5014949;28;20040;-90
2022/03/13 08:18:02;;;;;;;17.92;9.55;;;;;;;8.54;38.95;101218.88;5015043;28;20456;-89
2022/03/13 08:20:28;;;;;;;19.52;9.75;;;;;;;8.43;38.92;101217.19;5022750;28;20052;-89
2022/03/13 08:22:53;;;;;;;24.25;11.18;;;;;;;8.22;39.16;101217.25;5013673;28;20556;-90
2022/03/13 08:25:19;;;;;;;22.05;10.00;;;;;;;8.10;39.37;101219.09;5010592;28;20119;-89
2022/03/13 08:27:46;;;;;;;20.42;10.40;;;;;;;8.05;39.50;101208.34;5026222;28;20393;-89
2022/03/13 08:30:12;;;;;;;22.98;9.70;;;;;;;8.01;39.68;101226.81;5014040;28;20345;-88
2022/03/13 08:32:40;;;;;;;24.20;10.18;;;;;;;7.94;39.69;101209.22;5016969;28;20040;-90
2022/03/13 08:35:09;;;;;;;20.90;10.15;;;;;;;7.94;39.90;101216.16;5015088;28;20037;-89
2022/03/13 08:37:35;;;;;;;21.58;10.90;;;;;;;8.10;39.95;101206.19;5009016;28;20030;-89
2022/03/13 08:40:03;;;;;;;20.48;9.85;;;;;;;8.14;39.87;101207.56;5017003;28;20080;-89
2022/03/13 08:42:30;;;;;;;19.52;9.73;;;;;;;8.16;39.69;101217.78;5023482;28;20033;-88
2022/03/13 08:44:57;;;;;;;23.92;10.23;;;;;;;8.33;39.84;101209.41;5028023;28;20124;-88
2022/03/13 08:47:22;;;;;;;18.73;9.68;;;;;;;8.36;39.98;101214.31;5009778;28;20160;-89
2022/03/13 08:49:50;;;;;;;21.75;10.13;;;;;;;8.48;39.84;101211.66;5011915;28;20036;-88
2022/03/13 08:52:16;;;;;;;28.98;11.57;;;;;;;8.55;39.50;101216.16;5016130;28;20033;-89
2022/03/13 08:54:42;;;;;;;26.73;10.20;;;;;;;8.71;39.65;101212.25;5009378;28;20267;-89
2022/03/13 08:57:07;;;;;;;19.52;9.27;;;;;;;9.25;39.05;101197.97;5011876;28;20037;-89
2022/03/13 08:59:36;;;;;;;22.08;10.13;;;;;;;9.61;37.90;101207.75;5010653;28;20033;-89
2022/03/13 09:02:03;;;;;;;18.67;9.52;;;;;;;9.93;36.40;101197.03;5010313;28;20040;-89
2022/03/13 09:04:29;;;;;;;20.13;11.32;;;;;;;10.06;36.19;101200.09;5031766;28;20048;-91
2022/03/13 09:06:55;;;;;;;20.52;10.98;;;;;;;10.11;36.01;101192.72;5014340;28;20164;-89
2022/03/13 09:09:22;;;;;;;22.80;10.30;;;;;;;9.63;37.29;101191.09;5030365;28;20098;-89
2022/03/13 09:11:48;;;;;;;21.63;10.05;;;;;;;9.31;37.61;101191.44;5012272;28;20142;-89
2022/03/13 09:14:14;;;;;;;23.58;11.27;;;;;;;9.18;38.13;101193.50;5010319;28;20049;-89
2022/03/13 09:16:40;;;;;;;22.67;10.75;;;;;;;9.27;38.65;101182.31;5032930;28;20037;-89
2022/03/13 09:19:06;;;;;;;17.45;9.38;;;;;;;9.58;37.61;101189.88;5012524;28;20644;-88
2022/03/13 09:21:34;;;;;;;26.73;10.30;;;;;;;10.23;36.47;101198.53;5028188;28;20083;-88
2022/03/13 09:24:00;;;;;;;19.55;10.32;;;;;;;10.79;36.15;101190.69;5011807;28;20033;-89
2022/03/13 09:26:26;;;;;;;20.60;10.68;;;;;;;10.80;35.50;101192.34;5026341;28;20037;-88
2022/03/13 09:28:51;;;;;;;17.50;9.82;;;;;;;11.04;35.68;101189.97;5010712;28;20521;-90
2022/03/13 09:31:17;;;;;;;21.58;11.57;;;;;;;11.30;35.35;101197.81;5013337;28;20021;-90
2022/03/13 09:33:42;;;;;;;39.10;14.02;;;;;;;11.62;35.66;101192.97;5010229;28;20048;-90
2022/03/13 09:36:08;;;;;;;25.60;12.48;;;;;;;11.47;35.15;101198.75;5034081;28;20033;-87
2022/03/13 09:38:34;;;;;;;19.88;11.32;;;;;;;11.59;36.33;101190.69;5017856;28;20025;-89
2022/03/13 09:40:59;;;;;;;22.80;11.40;;;;;;;11.70;35.84;101190.44;5018039;28;20026;-89
2022/03/13 09:43:25;;;;;;;21.05;10.35;;;;;;;11.77;34.89;101183.66;5023371;28;20051;-87
2022/03/13 09:45:51;;;;;;;24.25;10.90;;;;;;;11.52;35.56;101189.66;5014294;28;20354;-87
2022/03/13 09:48:19;;;;;;;20.63;10.98;;;;;;;11.57;35.14;101177.06;4997442;28;20041;-88
2022/03/13 09:50:45;;;;;;;18.77;11.88;;;;;;;11.52;35.83;101174.91;5001265;28;20033;-90
2022/03/13 09:53:12;;;;;;;21.30;10.82;;;;;;;11.68;36.08;101171.59;5008845;28;20096;-89
2022/03/13 09:55:39;;;;;;;23.58;11.77;;;;;;;11.87;35.82;101168.75;5019390;28;20068;-88
2022/03/13 09:58:08;;;;;;;20.42;11.27;;;;;;;11.96;35.64;101172.25;5018374;28;20025;-90
2022/03/13 10:00:35;;;;;;;20.52;11.00;;;;;;;12.13;36.81;101186.13;5033032;28;20029;-89
2022/03/13 10:03:05;;;;;;;20.33;10.73;;;;;;;12.05;35.25;101171.31;5010059;28;20037;-89
2022/03/13 10:05:43;;;;;;;18.75;11.13;;;;;;;11.92;35.24;101173.50;5007375;28;20211;-89
2022/03/13 10:08:08;;;;;;;22.88;10.85;;;;;;;12.18;36.94;101165.66;5007948;28;20119;-89
2022/03/13 10:10:49;;;;;;;19.77;10.52;;;;;;;12.31;35.35;101169.63;5013186;28;20446;-89
2022/03/13 10:13:31;;;;;;;19.75;10.77;;;;;;;12.18;36.11;101163.06;5012084;28;20112;-89
2022/03/13 10:15:57;;;;;;;19.20;10.45;;;;;;;12.27;35.50;101162.13;5025353;28;20033;-89
2022/03/13 10:18:25;;;;;;;27.27;11.02;;;;;;;12.43;35.67;101173.53;5013348;28;20033;-89
2022/03/13 10:20:52;;;;;;;20.42;10.73;;;;;;;12.30;35.76;101165.38;5022677;28;20108;-89
2022/03/13 10:23:22;;;;;;;18.30;10.52;;;;;;;12.40;35.45;101166.88;5005950;28;20095;-89
2022/03/13 10:25:52;;;;;;;22.63;11.63;;;;;;;12.12;35.37;101155.91;5019320;28;20502;-91
2022/03/13 10:28:22;;;;;;;23.98;10.48;;;;;;;12.22;36.15;101156.59;5005120;28;20037;-90
2022/03/13 10:31:00;;;;;;;23.55;10.35;;;;;;;12.49;35.57;101157.31;5005092;28;20033;-89
2022/03/13 10:33:44;;;;;;;22.10;11.88;;;;;;;12.63;36.45;101164.47;5026005;28;20042;-90
2022/03/13 10:36:14;;;;;;;20.40;10.93;;;;;;;12.51;35.94;101157.13;5024987;28;20171;-89
2022/03/13 10:38:41;;;;;;;23.98;12.32;;;;;;;12.38;36.54;101147.22;5010722;28;20034;-90
2022/03/13 10:41:12;;;;;;;21.35;10.40;;;;;;;12.49;36.63;101146.06;5014363;28;20033;-90
2022/03/13 10:43:51;;;;;;;22.65;12.00;;;;;;;12.69;36.77;101147.41;5008930;28;20065;-90
2022/03/13 10:46:27;;;;;;;21.90;11.85;;;;;;;12.57;36.66;101139.09;5006401;28;20041;-90
2022/03/13 10:48:54;;;;;;;25.75;12.00;;;;;;;12.73;37.19;101134.88;5017950;28;20089;-89
2022/03/13 10:51:45;;;;;;;21.95;12.70;;;;;;;12.83;36.83;101128.56;5004424;28;20479;-88
2022/03/13 10:54:27;;;;;;;25.33;11.68;;;;;;;12.84;36.81;101124.97;5008467;28;20072;-89
2022/03/13 10:57:12;;;;;;;22.27;11.55;;;;;;;12.99;37.30;101132.94;5022888;28;20104;-89
2022/03/13 10:59:40;;;;;;;25.02;12.15;;;;;;;13.04;37.30;101132.47;5027306;28;20047;-90
2022/03/13 11:02:17;;;;;;;23.13;12.02;;;;;;;13.16;36.90;101131.13;5009689;28;20049;-89
2022/03/13 11:04:51;;;;;;;24.10;11.95;;;;;;;13.15;37.02;101133.91;5020859;28;20038;-88
2022/03/13 11:07:19;;;;;;;21.77;12.77;;;;;;;13.21;37.13;101134.06;5020877;28;20333;-89
2022/03/13 11:09:45;;;;;;;23.88;11.40;;;;;;;13.16;37.49;101123.31;5010601;28;20033;-89
2022/03/13 11:12:23;;;;;;;21.52;11.90;;;;;;;13.22;37.47;101132.25;5008531;28;20045;-89
2022/03/13 11:14:57;;;;;;;24.27;12.43;;;;;;;13.22;37.68;101112.25;5009275;28;20083;-89
2022/03/13 11:17:28;;;;;;;20.38;11.75;;;;;;;13.36;37.74;101118.59;5008563;28;20052;-89
2022/03/13 11:19:58;;;;;;;22.23;12.63;;;;;;;13.48;38.46;101123.47;5013950;28;20041;-88